Portada
METAR-TAF:

METAR-TAF

Aeroports :

Ahwaz, Iran

latitud: 31-20N, longitud: 048-40E, altitud: 20 m

Observació

L'informe es va fer fa 35 minuts, a les 02:00 UTC
Vent 8 kt del Oest/Nord-Oest
Temperatura 27°C
Humitat 24%
Pressió 999 hPa
Visibilitat: 8000 m

METAR: OIAW 130200Z 29008KT 8000 NSC 27/05 Q0999

Hora: 07:05 (02:35 UTC)

Pronòstic

L'informe es va fer fa 3 hores i 35 minuts, a les 23:00 UTC
Pronòstic vàlid del 13 a les 00 UTC al 14 a les 06 UTC
Vent 12 kt del Oest/Nord-Oest
Visibilitat: 7000 m
Temporalment
l' 13 a les 09 UTC al 13 a les 18 UTC
Vent 20 kt del Oest/Nord-Oest
Visibilitat: 3000 m

TAF: OIAW 122300Z 1300/1406 30012KT 7000 NSC TEMPO 1309/1318 29020KT 3000 SA/DU

Observacions i pronòstics meteorològics de més de 4000 aeroports (METAR i TAF).

Les estacions disponibles són els punts grocs i vermells al mapa.

Posi el ratolí al punt desitjat per veure el nom de l'estació.

Feu clic per veure les observacions i els pronòstics meteorològics.

Per canviar el mapa: feu clic els botons verds amb una creu de color negre per apropar; al botó verd amb un guió per allunyar la imatge; o en les fletxes verdes per a mapes adjacents.


METAR-TAF: